Time;durP1;ratioP1;P1;durP2;ratioP2;P2;SDS_P1;SDS_P2;PMS_P1;PMS_P2;Temp;Humidity;BMP_temperature;BMP_pressure;BME280_temperature;BME280_humidity;BME280_pressure;Samples;Min_cycle;Max_cycle;Signal;HPM_P1;HPM_P2
2024/01/23 00:01:16;;;;;;;12.32;2.53;;;;;;;9.52;100.00;101624.28;5262463;28;20607;-80
2024/01/23 00:03:48;;;;;;;15.07;3.08;;;;;;;9.51;100.00;101639.13;5256312;28;20053;-80
2024/01/23 00:06:20;;;;;;;12.48;3.40;;;;;;;9.54;100.00;101645.91;5255003;28;20060;-80
2024/01/23 00:08:53;;;;;;;15.48;3.53;;;;;;;9.54;100.00;101654.59;5263140;28;20035;-80
2024/01/23 00:11:25;;;;;;;12.38;3.53;;;;;;;9.47;100.00;101635.88;5255874;28;20036;-80
2024/01/23 00:13:57;;;;;;;14.13;3.20;;;;;;;9.42;100.00;101652.81;5258557;28;20631;-80
2024/01/23 00:16:28;;;;;;;12.43;3.00;;;;;;;9.44;100.00;101661.41;5264807;28;20028;-80
2024/01/23 00:19:01;;;;;;;13.00;2.95;;;;;;;9.43;100.00;101693.72;5257675;28;20033;-81
2024/01/23 00:21:32;;;;;;;15.18;3.00;;;;;;;9.43;100.00;101670.16;5259234;28;20493;-81
2024/01/23 00:24:05;;;;;;;17.38;3.90;;;;;;;9.38;100.00;101674.88;5256817;28;20103;-81
2024/01/23 00:26:37;;;;;;;12.43;3.53;;;;;;;9.43;100.00;101684.09;5255792;28;20390;-81
2024/01/23 00:29:09;;;;;;;11.93;2.83;;;;;;;9.39;100.00;101687.84;5262722;28;20063;-81
2024/01/23 00:31:41;;;;;;;11.98;3.20;;;;;;;9.43;100.00;101678.88;5256409;28;20056;-81
2024/01/23 00:34:13;;;;;;;11.68;3.00;;;;;;;9.40;100.00;101684.31;5263078;28;20048;-81
2024/01/23 00:36:45;;;;;;;10.75;2.78;;;;;;;9.42;100.00;101700.72;5258927;28;20032;-81
2024/01/23 00:39:16;;;;;;;13.82;3.88;;;;;;;9.48;100.00;101702.09;5270215;28;20060;-81
2024/01/23 00:41:48;;;;;;;17.73;3.25;;;;;;;9.53;100.00;101709.63;5260156;28;20124;-81
2024/01/23 00:44:20;;;;;;;13.82;3.45;;;;;;;9.52;100.00;101721.06;5261217;28;20135;-81
2024/01/23 00:46:52;;;;;;;14.20;3.35;;;;;;;9.59;100.00;101736.25;5260252;28;20051;-81
2024/01/23 00:49:24;;;;;;;11.98;2.72;;;;;;;9.48;100.00;101710.78;5259757;28;20028;-81
2024/01/23 00:51:56;;;;;;;11.70;3.30;;;;;;;9.50;100.00;101728.97;5262403;28;20037;-82
2024/01/23 00:54:28;;;;;;;12.50;3.17;;;;;;;9.48;100.00;101721.25;5257233;28;20123;-81
2024/01/23 00:57:00;;;;;;;11.68;3.10;;;;;;;9.41;100.00;101719.97;5251059;28;20119;-80
2024/01/23 00:59:32;;;;;;;11.65;2.78;;;;;;;9.47;100.00;101718.72;5253527;28;20113;-81
2024/01/23 01:02:04;;;;;;;15.85;3.30;;;;;;;9.43;100.00;101738.16;5257755;28;20029;-81
2024/01/23 01:04:36;;;;;;;12.73;2.75;;;;;;;9.32;100.00;101733.66;5265569;28;20036;-82
2024/01/23 01:07:08;;;;;;;12.45;3.28;;;;;;;9.41;100.00;101737.44;5277981;28;20044;-82
2024/01/23 01:09:40;;;;;;;12.40;3.15;;;;;;;9.27;100.00;101733.09;5267085;28;20753;-82
2024/01/23 01:12:12;;;;;;;14.65;3.95;;;;;;;9.26;100.00;101747.97;5267259;28;20028;-82
2024/01/23 01:14:44;;;;;;;12.25;3.10;;;;;;;9.13;100.00;101752.31;5263842;28;20047;-82
2024/01/23 01:17:16;;;;;;;20.13;3.55;;;;;;;9.04;100.00;101752.06;5277238;28;20040;-82
2024/01/23 01:19:48;;;;;;;13.38;3.22;;;;;;;9.15;100.00;101766.13;5261869;28;20032;-82
2024/01/23 01:22:20;;;;;;;12.85;2.90;;;;;;;9.17;100.00;101777.31;5262222;28;20420;-82
2024/01/23 01:24:53;;;;;;;13.10;3.08;;;;;;;9.13;100.00;101788.06;5261963;28;20098;-82
2024/01/23 01:27:24;;;;;;;11.55;3.45;;;;;;;9.10;100.00;101783.03;5265334;28;20033;-82
2024/01/23 01:29:57;;;;;;;19.25;3.70;;;;;;;8.98;100.00;101792.50;5258910;28;20774;-81
2024/01/23 01:32:28;;;;;;;12.30;3.85;;;;;;;8.99;100.00;101800.25;5267912;28;20041;-81
2024/01/23 01:35:00;;;;;;;12.82;3.30;;;;;;;8.97;100.00;101803.88;5263121;28;20033;-81
2024/01/23 01:37:33;;;;;;;12.98;3.22;;;;;;;8.91;100.00;101793.81;5268329;28;20147;-81
2024/01/23 01:40:05;;;;;;;14.88;3.85;;;;;;;8.92;100.00;101801.56;5262528;28;20482;-81
2024/01/23 01:42:37;;;;;;;12.55;3.50;;;;;;;8.93;100.00;101816.28;5275735;28;20045;-81
2024/01/23 01:45:12;;;;;;;17.05;3.60;;;;;;;8.96;100.00;101823.09;5261639;28;20037;-81
2024/01/23 01:47:47;;;;;;;14.75;3.13;;;;;;;9.02;100.00;101826.19;5268120;28;20032;-81
2024/01/23 01:50:19;;;;;;;17.23;3.67;;;;;;;8.95;100.00;101813.59;5259229;28;20028;-81
2024/01/23 01:52:51;;;;;;;14.23;3.33;;;;;;;8.92;100.00;101809.41;5264784;28;20044;-81
2024/01/23 01:55:22;;;;;;;12.07;3.45;;;;;;;8.93;100.00;101818.06;5261096;28;20044;-81
2024/01/23 01:57:54;;;;;;;14.55;4.00;;;;;;;8.84;100.00;101826.50;5272884;28;20491;-81
2024/01/23 02:00:27;;;;;;;10.57;3.03;;;;;;;8.77;100.00;101839.09;5260880;28;20041;-81
2024/01/23 02:02:59;;;;;;;17.70;3.83;;;;;;;8.73;100.00;101850.66;5264395;28;20044;-81
2024/01/23 02:05:31;;;;;;;12.48;3.13;;;;;;;8.76;100.00;101855.72;5260294;28;20049;-81
2024/01/23 02:08:03;;;;;;;14.57;3.72;;;;;;;8.70;100.00;101861.28;5265881;28;20043;-81
2024/01/23 02:10:35;;;;;;;15.05;4.35;;;;;;;8.69;100.00;101867.47;5263894;28;20048;-81
2024/01/23 02:13:06;;;;;;;14.77;3.40;;;;;;;8.70;100.00;101884.81;5261827;28;20033;-81
2024/01/23 02:15:38;;;;;;;15.82;3.83;;;;;;;8.70;100.00;101871.75;5264096;28;20037;-81
2024/01/23 02:18:10;;;;;;;10.75;2.90;;;;;;;8.59;100.00;101882.81;5258184;28;20114;-81
2024/01/23 02:20:42;;;;;;;16.00;3.72;;;;;;;8.62;100.00;101881.81;5261402;28;20037;-81
2024/01/23 02:23:15;;;;;;;14.80;3.28;;;;;;;8.60;100.00;101879.31;5259313;28;20031;-81
2024/01/23 02:25:47;;;;;;;15.15;3.97;;;;;;;8.56;100.00;101858.66;5255791;28;20047;-81
2024/01/23 02:28:19;;;;;;;14.57;3.13;;;;;;;8.58;100.00;101889.00;5259650;28;20025;-81
2024/01/23 02:30:51;;;;;;;10.48;3.45;;;;;;;8.56;100.00;101887.41;5262613;28;20028;-81
2024/01/23 02:33:23;;;;;;;14.82;2.92;;;;;;;8.48;100.00;101886.06;5261279;28;20029;-81
2024/01/23 02:35:55;;;;;;;18.38;4.50;;;;;;;8.59;100.00;101906.34;5262352;28;20513;-81
2024/01/23 02:38:27;;;;;;;17.10;3.60;;;;;;;8.52;100.00;101913.72;5262313;28;20054;-81
2024/01/23 02:41:00;;;;;;;11.68;3.65;;;;;;;8.54;100.00;101918.84;5262744;28;20032;-81
2024/01/23 02:43:32;;;;;;;14.45;3.30;;;;;;;8.47;100.00;101915.75;5261328;28;20043;-81
2024/01/23 02:46:04;;;;;;;16.15;3.78;;;;;;;8.51;100.00;101939.91;5263380;28;20103;-81
2024/01/23 02:48:36;;;;;;;15.05;3.45;;;;;;;8.48;100.00;101933.09;5263810;28;20500;-81
2024/01/23 02:51:08;;;;;;;15.73;3.40;;;;;;;8.44;100.00;101928.97;5264380;28;20043;-81
2024/01/23 02:53:40;;;;;;;15.15;2.90;;;;;;;8.44;100.00;101934.19;5264291;28;20041;-81
2024/01/23 02:56:12;;;;;;;15.45;3.42;;;;;;;8.46;100.00;101942.78;5257809;28;20035;-81
2024/01/23 02:58:44;;;;;;;18.63;3.85;;;;;;;8.47;100.00;101944.47;5260837;28;20024;-81
2024/01/23 03:01:16;;;;;;;12.27;3.47;;;;;;;8.40;100.00;101948.38;5262359;28;20024;-82
2024/01/23 03:03:48;;;;;;;16.50;3.80;;;;;;;8.39;100.00;101974.56;5257431;28;20043;-81
2024/01/23 03:06:19;;;;;;;12.73;2.97;;;;;;;8.37;100.00;101972.06;5261129;28;20049;-81
2024/01/23 03:08:51;;;;;;;21.25;3.85;;;;;;;8.38;100.00;101973.75;5253962;28;20028;-81
2024/01/23 03:11:23;;;;;;;13.10;3.55;;;;;;;8.41;100.00;101967.47;5256026;28;20090;-81
2024/01/23 03:13:55;;;;;;;14.88;3.65;;;;;;;8.42;100.00;101963.97;5258983;28;20068;-81
2024/01/23 03:16:28;;;;;;;13.93;3.30;;;;;;;8.45;100.00;101985.53;5258008;28;20044;-81
2024/01/23 03:19:00;;;;;;;15.25;3.92;;;;;;;8.47;100.00;101991.47;5260515;28;20037;-81
2024/01/23 03:21:32;;;;;;;15.40;3.47;;;;;;;8.40;100.00;101984.91;5256303;28;20761;-81
2024/01/23 03:24:04;;;;;;;14.07;3.33;;;;;;;8.44;100.00;101998.66;5259129;28;20029;-81
2024/01/23 03:26:36;;;;;;;19.00;4.78;;;;;;;8.38;100.00;102012.91;5256559;28;20043;-81
2024/01/23 03:29:09;;;;;;;14.15;3.92;;;;;;;8.30;100.00;102022.91;5254690;28;20051;-81
2024/01/23 03:31:41;;;;;;;17.48;3.75;;;;;;;8.36;100.00;102027.78;5259402;28;20043;-81
2024/01/23 03:34:13;;;;;;;16.80;3.72;;;;;;;8.31;100.00;102013.31;5262692;28;20032;-81
2024/01/23 03:36:45;;;;;;;18.73;3.97;;;;;;;8.29;100.00;102016.81;5262771;28;20031;-81
2024/01/23 03:39:17;;;;;;;17.52;3.60;;;;;;;8.29;100.00;102013.38;5258608;28;20035;-81
2024/01/23 03:41:49;;;;;;;14.27;3.67;;;;;;;8.25;100.00;102014.47;5258013;28;20029;-81
2024/01/23 03:44:23;;;;;;;14.88;3.90;;;;;;;8.26;100.00;102016.19;5257750;28;20060;-81
2024/01/23 03:46:56;;;;;;;14.98;3.50;;;;;;;8.22;100.00;102012.91;5263123;28;20497;-81
2024/01/23 03:49:27;;;;;;;14.83;4.00;;;;;;;8.24;100.00;102025.88;5268855;28;20048;-81
2024/01/23 03:51:59;;;;;;;12.82;3.28;;;;;;;8.10;100.00;102020.56;5255957;28;20047;-81
2024/01/23 03:54:31;;;;;;;13.27;4.00;;;;;;;8.17;100.00;102034.97;5255095;28;20591;-81
2024/01/23 03:57:03;;;;;;;18.25;3.53;;;;;;;8.13;100.00;102041.28;5256548;28;20047;-81
2024/01/23 03:59:35;;;;;;;18.95;3.53;;;;;;;8.14;100.00;102049.00;5252922;28;20040;-81
2024/01/23 04:02:07;;;;;;;14.25;3.63;;;;;;;8.08;100.00;102062.41;5253304;28;20036;-81
2024/01/23 04:04:39;;;;;;;15.88;3.40;;;;;;;8.06;100.00;102059.03;5254959;28;20590;-81
2024/01/23 04:07:11;;;;;;;16.90;3.53;;;;;;;8.05;100.00;102068.63;5255211;28;20800;-81
2024/01/23 04:09:43;;;;;;;13.50;3.20;;;;;;;8.12;100.00;102068.31;5250073;28;20029;-81
2024/01/23 04:12:15;;;;;;;19.48;3.63;;;;;;;8.09;100.00;102066.72;5253295;28;20055;-81
2024/01/23 04:14:47;;;;;;;17.88;3.65;;;;;;;7.98;100.00;102071.66;5248330;28;20033;-81
2024/01/23 04:17:19;;;;;;;16.63;3.55;;;;;;;8.00;100.00;102075.88;5249041;28;20041;-81
2024/01/23 04:19:51;;;;;;;14.55;3.05;;;;;;;7.81;100.00;102054.31;5255809;28;20028;-81
2024/01/23 04:22:23;;;;;;;16.83;3.45;;;;;;;7.88;100.00;102073.06;5253838;28;20033;-81
2024/01/23 04:24:54;;;;;;;13.23;3.03;;;;;;;7.87;100.00;102067.03;5252859;28;20035;-81
2024/01/23 04:27:26;;;;;;;18.77;3.42;;;;;;;7.88;100.00;102089.59;5251089;28;20031;-81
2024/01/23 04:29:58;;;;;;;15.38;3.60;;;;;;;7.83;100.00;102077.72;5247620;28;20037;-81
2024/01/23 04:32:30;;;;;;;16.15;3.47;;;;;;;7.83;100.00;102091.59;5249083;28;20048;-81
2024/01/23 04:35:02;;;;;;;15.90;3.83;;;;;;;7.82;100.00;102108.19;5251516;28;20037;-81
2024/01/23 04:37:34;;;;;;;17.35;4.03;;;;;;;7.82;100.00;102118.63;5250823;28;20040;-81
2024/01/23 04:40:08;;;;;;;16.38;3.28;;;;;;;7.81;100.00;102119.56;5250863;28;20029;-81
2024/01/23 04:42:40;;;;;;;13.13;3.30;;;;;;;7.74;100.00;102134.69;5255120;28;20449;-82
2024/01/23 04:45:13;;;;;;;13.35;3.60;;;;;;;7.77;100.00;102144.13;5253710;28;20044;-82
2024/01/23 04:47:45;;;;;;;18.30;3.25;;;;;;;7.76;100.00;102139.81;5250530;28;20424;-82
2024/01/23 04:50:16;;;;;;;17.80;3.58;;;;;;;7.72;100.00;102153.94;5255146;28;20033;-81
2024/01/23 04:52:48;;;;;;;20.13;4.68;;;;;;;7.74;100.00;102167.75;5254267;28;20048;-80
2024/01/23 04:55:20;;;;;;;14.52;3.72;;;;;;;7.74;100.00;102179.03;5254760;28;20033;-81
2024/01/23 04:57:52;;;;;;;20.27;4.10;;;;;;;7.69;100.00;102161.91;5250291;28;20508;-80
2024/01/23 05:00:24;;;;;;;14.70;3.20;;;;;;;7.68;100.00;102168.88;5253279;28;20044;-81
2024/01/23 05:02:56;;;;;;;18.80;4.25;;;;;;;7.66;100.00;102162.94;5253029;28;20113;-80
2024/01/23 05:05:29;;;;;;;19.20;3.60;;;;;;;7.59;100.00;102168.53;5255608;28;20056;-80
2024/01/23 05:08:00;;;;;;;17.25;4.00;;;;;;;7.62;100.00;102176.22;5254340;28;20642;-81
2024/01/23 05:10:32;;;;;;;16.10;3.88;;;;;;;7.61;100.00;102191.00;5253121;28;20051;-81
2024/01/23 05:13:04;;;;;;;12.30;3.50;;;;;;;7.54;100.00;102200.06;5256416;28;20033;-81
2024/01/23 05:15:37;;;;;;;15.13;3.25;;;;;;;7.51;100.00;102206.28;5261044;28;20090;-82
2024/01/23 05:18:08;;;;;;;13.93;3.85;;;;;;;7.36;100.00;102204.44;5256725;28;20405;-81
2024/01/23 05:20:40;;;;;;;15.13;3.58;;;;;;;7.44;100.00;102219.69;5258163;28;20128;-81
2024/01/23 05:23:12;;;;;;;15.15;3.08;;;;;;;7.41;100.00;102210.25;5261075;28;20029;-80
2024/01/23 05:25:44;;;;;;;16.42;3.42;;;;;;;7.39;100.00;102211.28;5259370;28;20034;-81
2024/01/23 05:28:16;;;;;;;17.70;4.72;;;;;;;7.38;100.00;102220.00;5256350;28;20028;-81
2024/01/23 05:30:48;;;;;;;16.98;4.18;;;;;;;7.28;100.00;102224.81;5260774;28;20096;-81
2024/01/23 05:33:20;;;;;;;12.55;3.50;;;;;;;7.29;100.00;102218.69;5256917;28;20033;-81
2024/01/23 05:35:52;;;;;;;18.05;5.00;;;;;;;7.29;100.00;102231.72;5263493;28;20036;-81
2024/01/23 05:38:24;;;;;;;14.20;3.95;;;;;;;7.28;100.00;102235.25;5261719;28;20032;-81
2024/01/23 05:40:56;;;;;;;14.18;4.07;;;;;;;7.29;100.00;102242.16;5257112;28;20063;-81
2024/01/23 05:43:27;;;;;;;15.57;3.80;;;;;;;7.32;100.00;102253.28;5261794;28;20049;-80
2024/01/23 05:45:59;;;;;;;15.85;3.92;;;;;;;7.25;100.00;102251.03;5248216;28;20139;-80
2024/01/23 05:48:31;;;;;;;16.42;3.53;;;;;;;7.24;100.00;102257.19;5258341;28;20041;-80
2024/01/23 05:51:03;;;;;;;15.68;3.97;;;;;;;7.21;100.00;102259.91;5261623;28;20054;-80
2024/01/23 05:53:36;;;;;;;16.70;3.28;;;;;;;7.34;100.00;102270.59;5258315;28;20033;-81
2024/01/23 05:56:08;;;;;;;17.80;3.40;;;;;;;7.35;100.00;102270.53;5262221;28;20064;-80
2024/01/23 05:58:42;;;;;;;15.63;3.78;;;;;;;7.39;100.00;102274.69;5256938;28;20414;-80
2024/01/23 06:01:14;;;;;;;17.73;4.55;;;;;;;7.34;100.00;102281.88;5258818;28;20039;-80
2024/01/23 06:03:45;;;;;;;19.75;4.95;;;;;;;7.37;100.00;102293.91;5258374;28;20561;-80
2024/01/23 06:06:19;;;;;;;17.55;4.22;;;;;;;7.36;100.00;102292.22;5265216;28;20037;-80
2024/01/23 06:08:51;;;;;;;;;;;;;;;7.93;100.00;102296.34;5261165;28;20051;-80
2024/01/23 06:11:22;;;;;;;19.42;4.40;;;;;;;7.47;100.00;102306.44;5253602;28;20814;-80
2024/01/23 06:13:54;;;;;;;16.48;3.55;;;;;;;7.46;100.00;102298.66;5258884;28;20048;-80
2024/01/23 06:16:26;;;;;;;19.90;4.28;;;;;;;7.38;100.00;102290.38;5266781;28;20389;-80
2024/01/23 06:18:58;;;;;;;17.08;3.80;;;;;;;7.46;100.00;102302.16;5259623;28;20029;-80
2024/01/23 06:21:30;;;;;;;16.55;4.38;;;;;;;7.48;100.00;102308.13;5259502;28;20123;-80
2024/01/23 06:24:02;;;;;;;16.60;3.80;;;;;;;7.48;100.00;102305.50;5266156;28;20040;-80
2024/01/23 06:26:34;;;;;;;15.80;4.43;;;;;;;7.46;100.00;102302.16;5262704;28;20024;-80
2024/01/23 06:29:06;;;;;;;15.77;3.47;;;;;;;7.48;100.00;102308.13;5256928;28;20024;-80
2024/01/23 06:31:38;;;;;;;20.80;4.30;;;;;;;7.50;100.00;102315.84;5255833;28;20033;-80
2024/01/23 06:34:10;;;;;;;16.73;4.05;;;;;;;7.49;100.00;102315.00;5258828;28;20054;-80
2024/01/23 06:36:46;;;;;;;17.13;4.10;;;;;;;7.54;100.00;102322.66;5257545;28;20547;-80
2024/01/23 06:39:18;;;;;;;15.98;3.95;;;;;;;7.48;100.00;102323.78;5259306;28;20055;-80
2024/01/23 06:41:50;;;;;;;19.02;4.03;;;;;;;7.46;100.00;102332.56;5254932;28;20028;-80
2024/01/23 06:44:22;;;;;;;18.50;3.83;;;;;;;7.43;100.00;102325.75;5259441;28;20035;-80
2024/01/23 06:46:54;;;;;;;12.52;3.22;;;;;;;7.39;100.00;102331.19;5263494;28;20029;-80
2024/01/23 06:49:26;;;;;;;15.10;4.07;;;;;;;7.41;100.00;102343.22;5257117;28;21106;-80
2024/01/23 06:51:58;;;;;;;14.35;3.75;;;;;;;7.43;100.00;102338.78;5264024;28;20041;-80
2024/01/23 06:54:30;;;;;;;20.88;4.93;;;;;;;7.36;100.00;102349.59;5263482;28;20039;-80
2024/01/23 06:57:02;;;;;;;15.75;3.90;;;;;;;7.42;100.00;102347.50;5264155;28;20025;-80
2024/01/23 06:59:34;;;;;;;17.77;3.83;;;;;;;7.45;100.00;102352.59;5268626;28;20500;-80
2024/01/23 07:02:06;;;;;;;20.35;4.45;;;;;;;7.36;100.00;102350.44;5267696;28;20032;-80
2024/01/23 07:04:40;;;;;;;14.02;3.78;;;;;;;7.37;100.00;102352.13;5265135;28;20047;-80
2024/01/23 07:07:11;;;;;;;15.07;3.63;;;;;;;7.31;100.00;102355.88;5265221;28;20556;-80
2024/01/23 07:09:43;;;;;;;15.98;4.03;;;;;;;7.28;100.00;102353.41;5268071;28;20041;-80
2024/01/23 07:12:16;;;;;;;21.27;4.72;;;;;;;7.25;100.00;102348.31;5264464;28;20037;-80
2024/01/23 07:14:48;;;;;;;18.13;3.53;;;;;;;7.21;100.00;102343.34;5261517;28;20035;-80
2024/01/23 07:17:20;;;;;;;17.40;3.85;;;;;;;7.20;100.00;102350.31;5262878;28;20033;-80
2024/01/23 07:19:52;;;;;;;14.65;4.50;;;;;;;7.17;100.00;102347.84;5265156;28;20036;-81
2024/01/23 07:22:24;;;;;;;13.45;3.08;;;;;;;7.18;100.00;102353.91;5265338;28;20035;-80
2024/01/23 07:25:03;;;;;;;18.67;3.45;;;;;;;7.25;100.00;102355.31;5258843;28;20036;-80
2024/01/23 07:27:35;;;;;;;16.67;3.58;;;;;;;7.21;100.00;102370.25;5268953;28;20040;-80
2024/01/23 07:30:07;;;;;;;19.50;4.03;;;;;;;7.16;100.00;102372.22;5260880;28;20474;-80
2024/01/23 07:32:39;;;;;;;16.88;3.47;;;;;;;7.29;100.00;102388.13;5264059;28;20032;-80
2024/01/23 07:35:11;;;;;;;21.13;5.03;;;;;;;7.22;100.00;102384.13;5263248;28;20043;-80
2024/01/23 07:37:43;;;;;;;18.10;4.43;;;;;;;7.20;100.00;102397.22;5261114;28;20301;-80
2024/01/23 07:40:15;;;;;;;18.60;4.22;;;;;;;7.07;100.00;102391.72;5257922;28;20032;-80
2024/01/23 07:42:47;;;;;;;18.40;4.03;;;;;;;7.12;100.00;102401.91;5264835;28;20493;-80
2024/01/23 07:45:19;;;;;;;20.43;4.63;;;;;;;7.14;100.00;102404.47;5267596;28;20028;-80
2024/01/23 07:47:51;;;;;;;15.77;3.83;;;;;;;6.99;100.00;102385.16;5260218;28;20305;-80
2024/01/23 07:50:23;;;;;;;18.85;4.00;;;;;;;6.94;100.00;102394.97;5252920;28;20029;-80
2024/01/23 07:52:55;;;;;;;13.27;3.45;;;;;;;6.83;100.00;102401.47;5261968;28;20071;-80
2024/01/23 07:55:27;;;;;;;18.75;3.92;;;;;;;6.77;100.00;102387.88;5268504;28;20044;-80
2024/01/23 07:57:59;;;;;;;21.10;4.10;;;;;;;6.75;100.00;102400.13;5262538;28;20037;-80
2024/01/23 08:00:31;;;;;;;16.98;3.85;;;;;;;6.69;100.00;102400.38;5268019;28;20042;-80
2024/01/23 08:03:03;;;;;;;20.30;4.53;;;;;;;6.69;100.00;102408.19;5271154;28;20028;-80
2024/01/23 08:05:35;;;;;;;18.10;4.13;;;;;;;6.64;100.00;102420.59;5259985;28;20033;-80
2024/01/23 08:08:07;;;;;;;16.40;4.10;;;;;;;6.65;100.00;102432.69;5258482;28;20040;-80
2024/01/23 08:10:39;;;;;;;20.83;5.18;;;;;;;6.68;100.00;102437.78;5266654;28;20037;-81
2024/01/23 08:13:11;;;;;;;20.08;3.20;;;;;;;6.56;100.00;102439.13;5267587;28;20037;-81
2024/01/23 08:15:43;;;;;;;14.95;3.50;;;;;;;6.58;100.00;102448.56;5267158;28;20316;-81
2024/01/23 08:18:17;;;;;;;18.80;3.78;;;;;;;6.55;100.00;102440.91;5261835;28;20029;-80
2024/01/23 08:20:49;;;;;;;22.77;3.95;;;;;;;6.50;100.00;102450.66;5265128;28;20043;-81
2024/01/23 08:23:20;;;;;;;19.33;4.65;;;;;;;6.55;100.00;102468.66;5269714;28;20023;-80
2024/01/23 08:25:52;;;;;;;22.80;4.53;;;;;;;6.54;100.00;102456.56;5270893;28;20043;-81
2024/01/23 08:28:24;;;;;;;14.93;4.03;;;;;;;6.57;100.00;102459.06;5258643;28;20024;-80
2024/01/23 08:31:02;;;;;;;21.42;4.22;;;;;;;6.53;100.00;102466.16;5266654;28;20035;-81
2024/01/23 08:33:34;;;;;;;22.45;4.15;;;;;;;6.50;100.00;102468.88;5270209;28;20039;-81
2024/01/23 08:36:07;;;;;;;12.70;3.80;;;;;;;6.58;100.00;102490.22;5265597;28;20461;-81
2024/01/23 08:38:39;;;;;;;15.77;3.75;;;;;;;6.60;100.00;102478.94;5257264;28;20407;-81
2024/01/23 08:41:11;;;;;;;12.50;3.35;;;;;;;6.68;100.00;102493.31;5272566;28;20034;-80
2024/01/23 08:43:44;;;;;;;14.63;3.72;;;;;;;6.62;100.00;102483.13;5262680;28;20118;-81
2024/01/23 08:46:15;;;;;;;18.58;4.25;;;;;;;6.72;100.00;102499.22;5268505;28;20040;-81
2024/01/23 08:48:48;;;;;;;14.32;4.05;;;;;;;6.71;100.00;102507.97;5263960;28;20032;-81
2024/01/23 08:51:24;;;;;;;14.93;4.13;;;;;;;6.69;100.00;102496.75;5268695;28;20039;-81
2024/01/23 08:53:56;;;;;;;16.58;3.83;;;;;;;6.76;100.00;102503.41;5261622;28;20048;-81
2024/01/23 08:56:29;;;;;;;16.80;3.97;;;;;;;6.74;100.00;102492.19;5268296;28;20033;-80
2024/01/23 08:59:01;;;;;;;15.75;4.45;;;;;;;6.75;100.00;102502.56;5265223;28;20040;-81
2024/01/23 09:01:33;;;;;;;17.27;4.47;;;;;;;6.82;100.00;102506.59;5265394;28;20028;-81
2024/01/23 09:04:05;;;;;;;22.17;4.78;;;;;;;6.92;100.00;102514.84;5268915;28;20394;-81
2024/01/23 09:06:37;;;;;;;14.20;3.38;;;;;;;6.93;100.00;102503.53;5268029;28;20044;-81
2024/01/23 09:09:10;;;;;;;17.50;3.75;;;;;;;6.96;100.00;102505.16;5259633;28;20043;-81
2024/01/23 09:11:42;;;;;;;17.07;4.10;;;;;;;6.95;100.00;102493.03;5272116;28;20021;-81
2024/01/23 09:14:13;;;;;;;14.30;3.78;;;;;;;7.05;100.00;102510.81;5275035;28;20050;-81
2024/01/23 09:16:47;;;;;;;14.23;4.10;;;;;;;7.00;100.00;102491.91;5264381;28;20033;-81
2024/01/23 09:19:19;;;;;;;15.52;3.95;;;;;;;7.09;100.00;102510.69;5268759;28;20025;-81
2024/01/23 09:21:51;;;;;;;15.23;3.75;;;;;;;7.22;100.00;102511.84;5266721;28;20037;-80
2024/01/23 09:24:23;;;;;;;15.43;4.35;;;;;;;7.28;100.00;102508.97;5267154;28;20021;-80
2024/01/23 09:26:59;;;;;;;17.70;3.60;;;;;;;7.29;100.00;102498.47;5266412;28;20032;-80
2024/01/23 09:29:31;;;;;;;18.10;4.53;;;;;;;7.27;100.00;102487.28;5268951;28;20036;-80
2024/01/23 09:32:04;;;;;;;17.95;4.05;;;;;;;7.35;100.00;102509.53;5275164;28;20032;-80
2024/01/23 09:34:36;;;;;;;12.77;3.33;;;;;;;7.42;100.00;102493.53;5267878;28;20032;-80
2024/01/23 09:37:08;;;;;;;19.42;4.20;;;;;;;7.49;100.00;102500.16;5267202;28;20413;-80
2024/01/23 09:39:41;;;;;;;15.70;4.03;;;;;;;7.49;100.00;102504.53;5265604;28;20028;-80
2024/01/23 09:42:14;;;;;;;21.33;4.95;;;;;;;7.56;100.00;102495.53;5271311;28;20033;-80
2024/01/23 09:44:46;;;;;;;19.05;4.47;;;;;;;7.64;100.00;102500.41;5259203;28;20024;-80
2024/01/23 09:47:20;;;;;;;14.13;4.63;;;;;;;7.72;100.00;102501.72;5263682;28;20286;-80
2024/01/23 09:49:52;;;;;;;21.25;5.05;;;;;;;7.72;100.00;102501.72;5262565;28;20039;-80
2024/01/23 09:52:25;;;;;;;16.75;4.88;;;;;;;7.78;100.00;102506.66;5260832;28;20032;-81
2024/01/23 09:54:57;;;;;;;13.85;3.90;;;;;;;7.89;100.00;102498.34;5263315;28;20052;-80
2024/01/23 09:57:29;;;;;;;14.82;3.90;;;;;;;7.93;100.00;102499.06;5269318;28;20670;-81
2024/01/23 10:00:01;;;;;;;19.85;4.22;;;;;;;7.94;100.00;102498.13;5265057;28;20378;-81
2024/01/23 10:02:35;;;;;;;14.68;4.05;;;;;;;8.04;100.00;102507.22;5271943;28;20035;-80
2024/01/23 10:05:09;;;;;;;15.15;3.67;;;;;;;8.14;100.00;102505.00;5259363;28;20036;-80
2024/01/23 10:07:41;;;;;;;15.98;4.30;;;;;;;8.15;100.00;102511.94;5263721;28;20028;-80
2024/01/23 10:10:17;;;;;;;16.88;4.25;;;;;;;8.25;100.00;102515.78;5262295;28;20032;-80
2024/01/23 10:12:49;;;;;;;17.33;3.88;;;;;;;8.25;100.00;102519.22;5264422;28;20029;-80
2024/01/23 10:15:22;;;;;;;25.15;5.93;;;;;;;8.35;100.00;102517.03;5258916;28;20461;-79
2024/01/23 10:17:54;;;;;;;18.20;4.20;;;;;;;8.40;100.00;102525.50;5254074;28;20040;-80
2024/01/23 10:20:26;;;;;;;21.63;4.43;;;;;;;8.44;100.00;102532.28;5268315;28;20414;-79
2024/01/23 10:22:58;;;;;;;19.98;4.53;;;;;;;8.56;100.00;102529.97;5256671;28;20032;-79
2024/01/23 10:25:32;;;;;;;18.73;4.43;;;;;;;8.53;100.00;102524.00;5264347;28;20021;-80
2024/01/23 10:28:10;;;;;;;22.30;5.47;;;;;;;8.51;100.00;102504.94;5265881;28;20033;-81
2024/01/23 10:30:45;;;;;;;17.92;4.28;;;;;;;8.61;100.00;102504.50;5269055;28;20036;-80
2024/01/23 10:33:18;;;;;;;18.52;4.82;;;;;;;8.68;100.00;102505.88;5267897;28;20036;-81
2024/01/23 10:35:50;;;;;;;17.85;4.00;;;;;;;8.78;100.00;102521.00;5272298;28;20040;-81
2024/01/23 10:38:23;;;;;;;20.60;5.00;;;;;;;8.87;100.00;102516.25;5264369;28;20037;-81
2024/01/23 10:40:55;;;;;;;16.73;3.97;;;;;;;8.85;100.00;102515.47;5267198;28;20033;-81
2024/01/23 10:43:29;;;;;;;17.07;4.20;;;;;;;9.02;100.00;102521.53;5265240;28;20048;-81
2024/01/23 10:46:04;;;;;;;18.35;4.95;;;;;;;8.99;100.00;102518.22;5267849;28;20029;-81
2024/01/23 10:48:36;;;;;;;16.13;4.68;;;;;;;9.09;100.00;102509.00;5265064;28;20035;-81
2024/01/23 10:51:21;;;;;;;21.80;4.53;;;;;;;9.20;100.00;102519.72;5265202;28;20021;-81
2024/01/23 10:53:57;;;;;;;17.70;4.38;;;;;;;9.19;100.00;102514.56;5265701;28;20033;-81
2024/01/23 10:56:37;;;;;;;18.85;4.55;;;;;;;9.29;100.00;102505.34;5275330;28;20516;-81
2024/01/23 10:59:20;;;;;;;18.67;5.10;;;;;;;9.36;100.00;102505.84;5267437;28;20622;-81
2024/01/23 11:01:58;;;;;;;19.63;4.57;;;;;;;9.47;100.00;102504.34;5265933;28;20040;-81
2024/01/23 11:04:30;;;;;;;17.92;4.63;;;;;;;9.45;100.00;102489.66;5269378;28;20029;-81
2024/01/23 11:07:17;;;;;;;18.70;4.30;;;;;;;9.66;100.00;102495.47;5270691;28;20071;-81
2024/01/23 11:10:06;;;;;;;16.30;3.92;;;;;;;9.58;100.00;102495.06;5271260;28;20039;-81
2024/01/23 11:12:46;;;;;;;13.85;4.10;;;;;;;9.66;100.00;102493.75;5265862;28;20268;-81
2024/01/23 11:15:18;;;;;;;24.27;4.63;;;;;;;9.57;100.00;102467.22;5266154;28;20029;-81
2024/01/23 11:17:53;;;;;;;14.13;4.20;;;;;;;9.61;100.00;102466.13;5269643;28;20036;-80
2024/01/23 11:20:24;;;;;;;14.48;3.97;;;;;;;9.49;100.00;102460.63;5265124;28;20033;-80
2024/01/23 11:23:12;;;;;;;16.75;4.00;;;;;;;9.67;100.00;102450.94;5264201;28;20039;-80
2024/01/23 11:26:14;;;;;;;17.02;4.88;;;;;;;9.74;100.00;102439.19;5264239;28;20033;-80
2024/01/23 11:28:48;;;;;;;20.67;3.90;;;;;;;9.56;100.00;102432.34;5260610;28;20055;-80
2024/01/23 11:31:22;;;;;;;19.00;5.38;;;;;;;9.55;100.00;102453.38;5264413;28;20035;-80
2024/01/23 11:34:23;;;;;;;16.33;4.05;;;;;;;9.95;100.00;102437.13;5266748;28;20493;-80
2024/01/23 11:36:55;;;;;;;18.92;4.35;;;;;;;9.75;100.00;102448.72;5266672;28;20055;-80
2024/01/23 11:39:27;;;;;;;19.15;4.88;;;;;;;9.72;100.00;102443.66;5258621;28;20028;-80
2024/01/23 11:41:59;;;;;;;20.52;4.68;;;;;;;9.61;100.00;102432.09;5263659;28;20500;-80